Time;durP1;ratioP1;P1;durP2;ratioP2;P2;SDS_P1;SDS_P2;PMS_P1;PMS_P2;Temp;Humidity;BMP_temperature;BMP_pressure;BME280_temperature;BME280_humidity;BME280_pressure;Samples;Min_cycle;Max_cycle;Signal;HPM_P1;HPM_P2
2023/10/22 00:00:07;;;;;;;4.03;1.80;;;10.60;66.60;;;;;;5043972;28;20036;-82
2023/10/22 00:02:38;;;;;;;2.25;1.98;;;10.60;66.60;;;;;;5059864;28;20039;-83
2023/10/22 00:05:05;;;;;;;1.98;1.63;;;10.50;66.40;;;;;;5051675;28;20042;-82
2023/10/22 00:07:31;;;;;;;2.13;1.80;;;10.50;66.40;;;;;;5049497;28;20036;-83
2023/10/22 00:09:57;;;;;;;3.40;1.95;;;10.40;66.30;;;;;;5060116;28;20021;-83
2023/10/22 00:12:24;;;;;;;3.50;2.58;;;10.40;66.30;;;;;;5043303;28;20519;-82
2023/10/22 00:14:50;;;;;;;3.35;2.00;;;10.40;66.30;;;;;;5065651;28;20130;-84
2023/10/22 00:17:16;;;;;;;4.60;2.20;;;10.30;66.10;;;;;;5062210;28;20028;-84
2023/10/22 00:19:45;;;;;;;3.28;1.83;;;10.30;66.20;;;;;;5038407;28;20032;-83
2023/10/22 00:22:13;;;;;;;2.58;1.80;;;10.30;66.20;;;;;;5060191;28;20112;-83
2023/10/22 00:24:41;;;;;;;2.72;2.08;;;10.20;66.10;;;;;;5060382;28;20037;-83
2023/10/22 00:27:07;;;;;;;3.42;2.30;;;10.20;66.10;;;;;;5046637;28;20259;-83
2023/10/22 00:29:33;;;;;;;2.70;2.03;;;10.20;66.10;;;;;;5066768;28;20131;-83
2023/10/22 00:31:59;;;;;;;4.03;1.98;;;10.10;66.00;;;;;;5048507;28;20276;-83
2023/10/22 00:34:25;;;;;;;2.30;1.77;;;10.10;66.00;;;;;;5058663;28;20569;-83
2023/10/22 00:36:50;;;;;;;2.75;2.05;;;10.00;65.80;;;;;;5075557;28;20123;-83
2023/10/22 00:39:16;;;;;;;3.97;2.10;;;10.00;65.90;;;;;;5060088;28;20044;-82
2023/10/22 00:41:42;;;;;;;3.13;1.98;;;9.90;65.80;;;;;;5057490;28;20036;-83
2023/10/22 00:44:08;;;;;;;4.35;2.33;;;9.90;65.80;;;;;;5062032;28;20035;-83
2023/10/22 00:46:35;;;;;;;2.58;1.90;;;9.90;65.80;;;;;;5062784;28;20048;-82
2023/10/22 00:49:01;;;;;;;3.15;2.13;;;9.80;65.60;;;;;;5045170;28;20111;-81
2023/10/22 00:51:28;;;;;;;4.25;2.20;;;9.80;65.70;;;;;;5055814;28;20025;-81
2023/10/22 00:53:54;;;;;;;2.28;1.98;;;9.80;65.70;;;;;;5042622;28;20033;-82
2023/10/22 00:56:22;;;;;;;3.10;2.20;;;9.70;65.50;;;;;;5069442;28;20024;-82
2023/10/22 00:58:49;;;;;;;6.55;2.70;;;9.70;65.50;;;;;;5065109;28;20036;-83
2023/10/22 01:01:16;;;;;;;2.80;2.28;;;9.70;65.50;;;;;;5039503;28;20099;-83
2023/10/22 01:03:42;;;;;;;1.95;1.83;;;9.60;65.40;;;;;;5065312;28;20021;-83
2023/10/22 01:06:08;;;;;;;4.57;2.17;;;9.60;65.90;;;;;;5047296;28;20028;-83
2023/10/22 01:08:36;;;;;;;2.75;1.88;;;9.60;65.40;;;;;;5061300;28;20036;-82
2023/10/22 01:11:11;;;;;;;3.58;2.10;;;9.50;65.30;;;;;;5055005;28;20033;-83
2023/10/22 01:13:38;;;;;;;3.85;2.15;;;9.50;65.40;;;;;;5065227;28;20032;-83
2023/10/22 01:16:09;;;;;;;6.65;2.13;;;9.50;65.40;;;;;;5060518;28;20071;-82
2023/10/22 01:18:36;;;;;;;2.83;1.92;;;9.50;65.40;;;;;;5063201;28;20036;-83
2023/10/22 01:21:03;;;;;;;3.58;2.17;;;9.40;65.30;;;;;;5061620;28;20040;-83
2023/10/22 01:23:35;;;;;;;2.88;1.77;;;9.40;65.30;;;;;;5059524;28;20039;-83
2023/10/22 01:26:01;;;;;;;1.75;1.60;;;9.40;65.30;;;;;;5052007;28;20032;-82
2023/10/22 01:28:27;;;;;;;2.70;1.88;;;9.30;65.10;;;;;;5059414;28;20400;-82
2023/10/22 01:30:56;;;;;;;2.25;2.00;;;9.30;65.10;;;;;;5062743;28;20036;-81
2023/10/22 01:33:22;;;;;;;2.90;2.00;;;9.30;65.20;;;;;;5064807;28;20068;-81
2023/10/22 01:35:48;;;;;;;3.13;2.03;;;9.20;65.00;;;;;;5060680;28;20073;-81
2023/10/22 01:38:14;;;;;;;2.97;1.98;;;9.20;65.10;;;;;;5048077;28;20384;-81
2023/10/22 01:40:40;;;;;;;2.90;2.10;;;9.10;65.00;;;;;;5033268;28;20090;-82
2023/10/22 01:43:06;;;;;;;3.88;2.55;;;9.10;65.00;;;;;;5060397;28;20020;-82
2023/10/22 01:45:32;;;;;;;2.17;1.80;;;9.10;65.00;;;;;;5061859;28;20024;-82
2023/10/22 01:47:58;;;;;;;2.13;1.85;;;9.10;65.00;;;;;;5062399;28;20549;-82
2023/10/22 01:50:23;;;;;;;2.35;1.95;;;9.00;64.80;;;;;;5061553;28;20122;-82
2023/10/22 01:52:49;;;;;;;1.95;1.48;;;9.00;64.80;;;;;;5045214;28;20036;-82
2023/10/22 01:55:15;;;;;;;2.05;1.67;;;8.90;64.80;;;;;;5052106;28;20044;-83
2023/10/22 01:57:42;;;;;;;2.53;1.80;;;8.90;64.80;;;;;;5060845;28;20233;-82
2023/10/22 02:00:10;;;;;;;2.80;1.92;;;8.90;64.80;;;;;;5043574;28;20068;-82
2023/10/22 02:02:40;;;;;;;3.85;1.65;;;8.90;64.80;;;;;;5075927;28;20029;-81
2023/10/22 02:05:07;;;;;;;2.35;1.48;;;8.90;64.80;;;;;;5065276;28;20043;-82
2023/10/22 02:07:37;;;;;;;3.70;1.88;;;8.90;64.90;;;;;;5063188;28;20112;-81
2023/10/22 02:10:04;;;;;;;1.83;1.67;;;8.80;64.60;;;;;;5060218;28;20032;-82
2023/10/22 02:12:30;;;;;;;2.72;1.58;;;8.80;64.60;;;;;;5062417;28;20366;-82
2023/10/22 02:14:56;;;;;;;3.05;1.77;;;8.80;64.70;;;;;;5061595;28;20249;-82
2023/10/22 02:17:22;;;;;;;2.42;1.75;;;8.80;64.80;;;;;;5061916;28;20036;-81
2023/10/22 02:19:49;;;;;;;2.13;1.65;;;8.80;64.80;;;;;;5060844;28;20039;-82
2023/10/22 02:22:16;;;;;;;2.45;1.48;;;8.70;64.80;;;;;;5060736;28;20025;-81
2023/10/22 02:24:42;;;;;;;3.78;1.70;;;8.70;64.80;;;;;;5053084;28;20033;-80
2023/10/22 02:27:08;;;;;;;2.53;1.88;;;8.70;64.90;;;;;;5060370;28;20546;-81
2023/10/22 02:29:35;;;;;;;1.67;1.50;;;8.80;65.10;;;;;;5062296;28;20037;-84
2023/10/22 02:32:06;;;;;;;2.55;1.60;;;8.70;65.50;;;;;;5044751;28;20387;-83
2023/10/22 02:34:32;;;;;;;4.35;2.80;;;8.70;65.00;;;;;;5040889;28;20101;-83
2023/10/22 02:36:58;;;;;;;2.40;1.55;;;8.80;65.30;;;;;;5060091;28;20020;-83
2023/10/22 02:39:25;;;;;;;2.58;1.77;;;8.80;65.30;;;;;;5058432;28;20048;-83
2023/10/22 02:41:51;;;;;;;2.67;1.77;;;8.80;65.30;;;;;;5054325;28;20044;-82
2023/10/22 02:44:17;;;;;;;1.90;1.67;;;8.80;65.30;;;;;;5061210;28;20024;-83
2023/10/22 02:46:43;;;;;;;2.10;1.63;;;8.90;65.50;;;;;;5042287;28;20041;-82
2023/10/22 02:49:08;;;;;;;3.33;1.90;;;8.90;65.60;;;;;;5087306;28;20400;-82
2023/10/22 02:51:37;;;;;;;2.35;1.60;;;8.90;65.60;;;;;;5058370;28;20024;-83
2023/10/22 02:54:03;;;;;;;2.95;1.67;;;9.00;66.30;;;;;;5060729;28;20101;-82
2023/10/22 02:56:29;;;;;;;2.08;1.92;;;9.00;65.90;;;;;;5050979;28;20479;-82
2023/10/22 02:58:55;;;;;;;2.20;1.55;;;9.00;65.90;;;;;;5059991;28;20035;-81
2023/10/22 03:01:22;;;;;;;2.78;1.90;;;9.00;66.00;;;;;;5062150;28;20342;-82
2023/10/22 03:03:48;;;;;;;2.67;1.60;;;9.10;66.20;;;;;;5027282;28;20420;-84
2023/10/22 03:06:14;;;;;;;5.20;1.83;;;9.10;66.20;;;;;;5045971;28;20048;-84
2023/10/22 03:08:41;;;;;;;3.80;1.83;;;9.00;66.00;;;;;;5043416;28;20487;-83
2023/10/22 03:11:16;;;;;;;2.53;1.80;;;9.10;66.20;;;;;;5048572;28;20495;-84
2023/10/22 03:13:43;;;;;;;2.70;2.10;;;9.10;66.40;;;;;;5041155;28;20517;-84
2023/10/22 03:16:17;;;;;;;3.88;1.95;;;9.10;66.40;;;;;;5058200;28;20089;-83
2023/10/22 03:18:44;;;;;;;2.92;2.15;;;9.10;66.40;;;;;;5059833;28;20024;-82
2023/10/22 03:21:11;;;;;;;3.33;1.90;;;9.20;66.60;;;;;;5049142;28;20141;-82
2023/10/22 03:23:41;;;;;;;4.20;1.70;;;9.20;66.70;;;;;;5062532;28;20040;-82
2023/10/22 03:26:08;;;;;;;1.95;1.60;;;9.20;66.70;;;;;;5037178;28;20032;-83
2023/10/22 03:28:36;;;;;;;3.85;1.92;;;9.20;66.80;;;;;;5060539;28;20144;-82
2023/10/22 03:31:03;;;;;;;3.25;1.80;;;9.20;66.90;;;;;;5062573;28;20567;-82
2023/10/22 03:33:32;;;;;;;2.42;1.80;;;9.20;67.00;;;;;;5057019;28;20060;-82
2023/10/22 03:35:59;;;;;;;2.67;1.90;;;9.30;67.20;;;;;;5057317;28;20434;-82
2023/10/22 03:38:26;;;;;;;3.53;2.20;;;9.30;67.20;;;;;;5059281;28;20080;-82
2023/10/22 03:41:03;;;;;;;5.03;2.03;;;9.30;67.30;;;;;;5055538;28;20036;-81
2023/10/22 03:43:31;;;;;;;7.72;2.38;;;9.30;67.40;;;;;;5045831;28;20048;-81
2023/10/22 03:45:57;;;;;;;4.47;2.13;;;9.40;67.60;;;;;;5060324;28;20044;-80
2023/10/22 03:48:24;;;;;;;2.25;1.80;;;9.40;67.60;;;;;;5061243;28;20044;-80
2023/10/22 03:50:50;;;;;;;4.50;2.17;;;9.40;67.60;;;;;;5089508;28;20033;-81
2023/10/22 03:53:17;;;;;;;2.88;2.08;;;9.40;67.70;;;;;;5061624;28;20161;-82
2023/10/22 03:55:43;;;;;;;3.38;1.63;;;9.50;67.90;;;;;;5035581;28;20035;-83
2023/10/22 03:58:09;;;;;;;3.00;1.80;;;9.50;67.90;;;;;;5060644;28;20028;-83
2023/10/22 04:00:35;;;;;;;2.95;1.92;;;9.50;68.00;;;;;;5059157;28;20043;-82
2023/10/22 04:03:01;;;;;;;2.78;1.48;;;9.50;68.00;;;;;;5061038;28;20318;-85
2023/10/22 04:05:28;;;;;;;2.03;1.50;;;9.50;68.00;;;;;;5057658;28;20029;-84
2023/10/22 04:07:54;;;;;;;2.08;1.88;;;9.50;68.10;;;;;;5093403;28;20017;-84
2023/10/22 04:10:21;;;;;;;3.80;1.90;;;9.50;68.10;;;;;;5056379;28;20159;-84
2023/10/22 04:12:47;;;;;;;1.90;1.40;;;9.50;68.20;;;;;;5059178;28;20021;-84
2023/10/22 04:15:13;;;;;;;4.05;1.60;;;9.60;68.40;;;;;;5043583;28;20392;-84
2023/10/22 04:17:39;;;;;;;2.65;1.92;;;9.50;68.30;;;;;;5062227;28;20370;-85
2023/10/22 04:20:05;;;;;;;2.45;1.77;;;9.60;68.50;;;;;;5064246;28;20324;-84
2023/10/22 04:22:32;;;;;;;3.30;1.83;;;9.60;68.60;;;;;;5061726;28;20036;-85
2023/10/22 04:24:58;;;;;;;2.70;1.92;;;9.60;68.60;;;;;;5057154;28;20016;-84
2023/10/22 04:27:24;;;;;;;3.92;2.17;;;9.60;68.60;;;;;;5038131;28;20029;-82
2023/10/22 04:29:50;;;;;;;4.07;1.98;;;9.60;68.60;;;;;;5060881;28;20054;-81
2023/10/22 04:32:16;;;;;;;3.10;1.88;;;9.60;68.70;;;;;;5064891;28;20036;-80
2023/10/22 04:34:42;;;;;;;2.42;2.22;;;9.60;68.70;;;;;;5060786;28;20484;-80
2023/10/22 04:37:10;;;;;;;3.03;2.00;;;9.60;68.80;;;;;;5065351;28;20066;-80
2023/10/22 04:39:36;;;;;;;4.40;1.90;;;9.60;68.80;;;;;;5041802;28;20049;-80
2023/10/22 04:42:05;;;;;;;2.08;1.75;;;9.60;68.90;;;;;;5055709;28;20110;-80
2023/10/22 04:44:31;;;;;;;2.55;2.10;;;9.70;69.10;;;;;;5062408;28;20476;-80
2023/10/22 04:46:57;;;;;;;3.92;2.13;;;9.60;68.90;;;;;;5062076;28;20094;-80
2023/10/22 04:49:24;;;;;;;3.53;1.98;;;9.60;69.00;;;;;;5057484;28;20131;-80
2023/10/22 04:51:50;;;;;;;2.72;1.98;;;9.70;69.20;;;;;;5069463;28;20036;-82
2023/10/22 04:54:15;;;;;;;2.88;1.73;;;9.70;69.30;;;;;;5059847;28;20033;-81
2023/10/22 04:56:42;;;;;;;5.00;2.25;;;9.70;69.30;;;;;;5059564;28;20024;-82
2023/10/22 04:59:08;;;;;;;2.92;1.90;;;9.70;69.40;;;;;;5056109;28;20032;-82
2023/10/22 05:01:34;;;;;;;2.78;1.90;;;9.70;69.40;;;;;;5062672;28;20089;-82
2023/10/22 05:03:59;;;;;;;2.83;1.85;;;9.70;69.50;;;;;;5049015;28;20416;-82
2023/10/22 05:06:26;;;;;;;2.33;1.98;;;9.70;69.50;;;;;;5065143;28;20512;-82
2023/10/22 05:08:52;;;;;;;2.53;1.75;;;9.70;69.50;;;;;;5059650;28;20037;-82
2023/10/22 05:11:18;;;;;;;4.72;2.28;;;9.70;69.60;;;;;;5047865;28;20285;-82
2023/10/22 05:13:45;;;;;;;5.47;2.17;;;9.70;69.60;;;;;;5061669;28;20071;-83
2023/10/22 05:16:11;;;;;;;3.13;1.92;;;9.70;69.60;;;;;;5062949;28;20375;-81
2023/10/22 05:18:37;;;;;;;4.72;2.55;;;9.80;69.90;;;;;;5060086;28;20040;-80
2023/10/22 05:21:05;;;;;;;3.45;2.30;;;9.80;69.90;;;;;;5068688;28;20573;-80
2023/10/22 05:23:32;;;;;;;2.83;2.53;;;9.80;69.90;;;;;;5060453;28;20456;-79
2023/10/22 05:26:11;;;;;;;5.93;2.55;;;9.80;70.00;;;;;;5058820;28;20036;-80
2023/10/22 05:28:37;;;;;;;3.30;2.63;;;9.80;70.10;;;;;;5059344;28;20039;-80
2023/10/22 05:31:14;;;;;;;3.45;2.20;;;9.80;70.00;;;;;;5054543;28;20036;-80
2023/10/22 05:33:42;;;;;;;4.93;2.85;;;9.80;70.10;;;;;;5043551;28;20032;-79
2023/10/22 05:36:19;;;;;;;2.65;2.45;;;9.80;70.10;;;;;;5071485;28;20501;-79
2023/10/22 05:38:46;;;;;;;4.72;2.00;;;9.80;70.20;;;;;;5061160;28;20048;-81
2023/10/22 05:41:24;;;;;;;3.72;2.20;;;9.90;70.40;;;;;;5054112;28;20671;-79
2023/10/22 05:43:52;;;;;;;3.25;2.22;;;9.80;70.20;;;;;;5061202;28;20503;-79
2023/10/22 05:46:18;;;;;;;4.28;2.13;;;9.80;70.20;;;;;;5058669;28;20039;-80
2023/10/22 05:48:44;;;;;;;2.53;2.15;;;9.80;70.20;;;;;;5067039;28;20039;-80
2023/10/22 05:51:10;;;;;;;5.00;2.50;;;9.80;70.20;;;;;;5064299;28;20051;-80
2023/10/22 05:53:37;;;;;;;4.10;2.55;;;9.70;70.10;;;;;;5063388;28;20244;-81
2023/10/22 05:56:03;;;;;;;3.85;2.80;;;9.70;70.10;;;;;;5059212;28;20548;-81
2023/10/22 05:58:29;;;;;;;4.18;2.80;;;9.70;70.10;;;;;;5064466;28;20093;-81
2023/10/22 06:00:55;;;;;;;2.80;2.60;;;9.60;70.00;;;;;;5054658;28;20108;-82
2023/10/22 06:03:22;;;;;;;3.15;2.70;;;9.60;70.00;;;;;;5065208;28;20033;-83
2023/10/22 06:05:48;;;;;;;4.38;2.25;;;9.60;70.00;;;;;;5066587;28;20244;-82
2023/10/22 06:08:14;;;;;;;2.63;2.42;;;9.50;69.90;;;;;;5059320;28;20035;-81
2023/10/22 06:10:44;;;;;;;4.20;3.58;;;9.50;69.90;;;;;;5063378;28;20455;-81
2023/10/22 06:13:11;;;;;;;4.72;3.50;;;9.50;70.00;;;;;;5064247;28;20025;-81
2023/10/22 06:15:40;;;;;;;3.38;2.60;;;9.40;69.80;;;;;;5062347;28;20399;-83
2023/10/22 06:18:07;;;;;;;4.47;3.40;;;9.30;69.60;;;;;;5048568;28;20121;-82
2023/10/22 06:20:34;;;;;;;4.85;2.67;;;9.30;69.70;;;;;;5046008;28;20052;-81
2023/10/22 06:23:01;;;;;;;3.42;2.85;;;9.30;69.70;;;;;;5043857;28;20039;-81
2023/10/22 06:25:27;;;;;;;3.20;2.63;;;9.30;69.60;;;;;;5059261;28;20058;-81
2023/10/22 06:27:56;;;;;;;4.28;3.13;;;9.20;69.50;;;;;;5066083;28;20028;-81
2023/10/22 06:30:23;;;;;;;3.65;2.60;;;9.20;69.50;;;;;;5060840;28;20395;-81
2023/10/22 06:32:54;;;;;;;3.05;2.83;;;9.20;69.50;;;;;;5060402;28;20052;-82
2023/10/22 06:35:26;;;;;;;3.30;3.00;;;9.20;69.50;;;;;;5059982;28;20031;-81
2023/10/22 06:37:52;;;;;;;3.13;2.75;;;9.20;69.50;;;;;;5041938;28;20094;-82
2023/10/22 06:40:19;;;;;;;4.07;3.33;;;9.10;69.30;;;;;;5054251;28;20518;-81
2023/10/22 06:42:46;;;;;;;3.72;2.83;;;9.10;69.40;;;;;;5041493;28;20033;-81
2023/10/22 06:45:12;;;;;;;3.42;2.97;;;9.10;69.30;;;;;;5069940;28;20119;-81
2023/10/22 06:47:42;;;;;;;3.65;2.90;;;9.10;69.40;;;;;;5066912;28;20420;-82
2023/10/22 06:50:11;;;;;;;4.63;2.78;;;9.10;70.00;;;;;;5059359;28;20037;-83
2023/10/22 06:52:38;;;;;;;3.85;3.30;;;9.10;69.40;;;;;;5042067;28;20083;-82
2023/10/22 06:55:05;;;;;;;4.22;3.10;;;9.10;69.40;;;;;;5043129;28;20056;-82
2023/10/22 06:57:31;;;;;;;5.05;3.63;;;9.10;69.40;;;;;;5041818;28;20050;-82
2023/10/22 06:59:58;;;;;;;4.80;3.33;;;9.10;69.40;;;;;;5034425;28;20651;-82
2023/10/22 07:02:25;;;;;;;6.30;3.72;;;9.10;69.40;;;;;;5053621;28;20517;-82
2023/10/22 07:04:52;;;;;;;3.78;3.10;;;9.10;70.00;;;;;;5062044;28;20649;-81
2023/10/22 07:07:18;;;;;;;4.93;3.50;;;9.10;69.40;;;;;;5062461;28;20024;-81
2023/10/22 07:09:43;;;;;;;3.60;3.30;;;9.20;69.70;;;;;;5056597;28;20385;-80
2023/10/22 07:12:10;;;;;;;4.90;3.33;;;9.10;69.50;;;;;;5056358;28;20034;-81
2023/10/22 07:14:36;;;;;;;5.72;3.70;;;9.10;69.50;;;;;;5058315;28;20784;-81
2023/10/22 07:17:02;;;;;;;3.75;3.30;;;9.10;69.60;;;;;;5058110;28;20024;-81
2023/10/22 07:19:28;;;;;;;4.70;2.97;;;9.10;69.60;;;;;;5057807;28;20029;-78
2023/10/22 07:21:54;;;;;;;6.32;3.83;;;9.10;69.70;;;;;;5066852;28;20040;-80
2023/10/22 07:24:21;;;;;;;4.00;3.47;;;9.10;69.70;;;;;;5060956;28;20036;-80
2023/10/22 07:26:48;;;;;;;5.22;3.78;;;9.10;69.70;;;;;;5059894;28;20032;-81
2023/10/22 07:29:14;;;;;;;3.60;3.30;;;9.10;69.70;;;;;;5060171;28;20070;-80
2023/10/22 07:31:42;;;;;;;31.40;27.52;;;9.20;69.90;;;;;;5059079;28;20120;-80
2023/10/22 07:34:08;;;;;;;41.08;35.33;;;9.20;70.50;;;;;;5052639;28;20032;-79
2023/10/22 07:36:33;;;;;;;21.13;17.42;;;9.40;71.30;;;;;;5057647;28;20089;-79
2023/10/22 07:39:00;;;;;;;15.20;13.20;;;9.80;71.90;;;;;;5060884;28;20521;-79
2023/10/22 07:41:26;;;;;;;14.30;12.85;;;10.10;72.10;;;;;;5052673;28;20040;-79
2023/10/22 07:43:52;;;;;;;11.73;10.40;;;10.40;72.30;;;;;;5044985;28;21247;-79
2023/10/22 07:46:18;;;;;;;11.70;8.15;;;10.60;72.30;;;;;;5064656;28;20040;-79
2023/10/22 07:48:45;;;;;;;9.38;6.47;;;10.90;72.40;;;;;;5056680;28;20515;-78
2023/10/22 07:51:16;;;;;;;8.88;6.43;;;10.90;72.10;;;;;;5060740;28;20035;-78
2023/10/22 07:53:43;;;;;;;7.53;6.13;;;10.90;72.10;;;;;;5039735;28;20028;-78
2023/10/22 07:56:11;;;;;;;9.48;6.38;;;11.00;72.40;;;;;;5054807;28;20537;-78
2023/10/22 07:58:38;;;;;;;5.82;5.10;;;10.90;72.30;;;;;;5058395;28;20221;-78
2023/10/22 08:01:06;;;;;;;6.57;5.03;;;10.80;72.30;;;;;;5057460;28;20036;-80
2023/10/22 08:03:32;;;;;;;8.27;5.32;;;10.80;72.50;;;;;;5058732;28;20535;-79
2023/10/22 08:06:00;;;;;;;7.43;5.53;;;10.80;72.60;;;;;;5046048;28;20033;-80
2023/10/22 08:08:26;;;;;;;8.98;4.93;;;10.80;72.60;;;;;;5047913;28;20079;-79
2023/10/22 08:11:00;;;;;;;8.68;5.50;;;10.80;72.70;;;;;;5053856;28;20764;-79
2023/10/22 08:13:26;;;;;;;6.55;4.97;;;10.70;72.70;;;;;;5051344;28;20032;-79
2023/10/22 08:15:53;;;;;;;11.10;4.82;;;10.70;73.20;;;;;;5053007;28;20286;-80
2023/10/22 08:18:19;;;;;;;5.32;4.00;;;10.70;72.70;;;;;;5040300;28;20044;-80
2023/10/22 08:20:46;;;;;;;8.18;4.60;;;10.70;72.80;;;;;;5039927;28;20542;-81
2023/10/22 08:23:12;;;;;;;8.57;4.75;;;10.70;72.80;;;;;;5054861;28;20526;-80
2023/10/22 08:25:39;;;;;;;4.63;4.07;;;10.80;73.00;;;;;;5042043;28;20042;-81
2023/10/22 08:28:05;;;;;;;5.63;3.90;;;10.80;73.00;;;;;;5055503;28;20434;-83
2023/10/22 08:30:31;;;;;;;3.85;3.03;;;10.70;72.80;;;;;;5051433;28;20032;-79
2023/10/22 08:32:57;;;;;;;4.35;2.97;;;10.70;72.80;;;;;;5055026;28;20152;-79
2023/10/22 08:35:24;;;;;;;6.00;3.33;;;10.70;72.80;;;;;;5058353;28;20044;-79
2023/10/22 08:37:50;;;;;;;4.68;3.28;;;10.70;72.80;;;;;;5046776;28;20395;-78
2023/10/22 08:40:16;;;;;;;3.95;3.17;;;10.70;72.90;;;;;;5048745;28;20040;-78
2023/10/22 08:42:44;;;;;;;5.95;2.72;;;10.70;73.40;;;;;;5050391;28;20082;-80
2023/10/22 08:45:10;;;;;;;5.03;2.92;;;10.70;73.00;;;;;;5059454;28;20068;-80
2023/10/22 08:47:37;;;;;;;3.75;2.53;;;10.70;73.10;;;;;;5066326;28;20468;-80
2023/10/22 08:50:05;;;;;;;4.70;2.55;;;10.70;73.10;;;;;;5052817;28;20135;-80
2023/10/22 08:52:32;;;;;;;4.57;3.05;;;10.60;72.90;;;;;;5084193;28;20028;-81
2023/10/22 08:54:58;;;;;;;5.85;2.88;;;10.60;72.90;;;;;;5057882;28;20253;-79
2023/10/22 08:57:26;;;;;;;2.53;2.20;;;10.60;72.90;;;;;;5052142;28;20763;-80
2023/10/22 08:59:52;;;;;;;3.63;2.03;;;10.60;73.10;;;;;;5052796;28;20036;-80
2023/10/22 09:02:23;;;;;;;4.38;2.25;;;10.60;73.60;;;;;;5053735;28;20501;-80
2023/10/22 09:04:50;;;;;;;4.07;1.90;;;10.60;73.00;;;;;;5057587;28;20028;-80
2023/10/22 09:07:17;;;;;;;5.63;1.70;;;10.60;73.00;;;;;;5063815;28;20033;-80
2023/10/22 09:09:43;;;;;;;3.58;1.60;;;10.60;72.90;;;;;;5056050;28;20083;-80
2023/10/22 09:12:10;;;;;;;1.90;1.40;;;10.70;73.10;;;;;;5037787;28;20052;-80
2023/10/22 09:14:37;;;;;;;2.45;1.10;;;10.70;73.10;;;;;;5062178;28;20040;-80
2023/10/22 09:17:18;;;;;;;2.83;1.13;;;10.70;72.90;;;;;;5063800;28;20295;-80
2023/10/22 09:19:47;;;;;;;4.00;1.38;;;10.70;72.90;;;;;;5053028;28;20129;-79
2023/10/22 09:22:27;;;;;;;2.40;1.20;;;10.70;72.80;;;;;;5051204;28;20127;-79
2023/10/22 09:24:57;;;;;;;2.35;1.27;;;10.80;73.00;;;;;;5043658;28;20492;-79
2023/10/22 09:27:28;;;;;;;2.38;1.40;;;10.80;72.80;;;;;;5059574;28;20032;-79
2023/10/22 09:30:00;;;;;;;2.15;0.95;;;10.80;72.80;;;;;;5061664;28;20036;-79
2023/10/22 09:32:29;;;;;;;2.63;0.98;;;10.80;72.70;;;;;;5041809;28;20311;-82
2023/10/22 09:35:14;;;;;;;2.08;0.93;;;10.90;73.30;;;;;;5061530;28;20044;-82
2023/10/22 09:37:50;;;;;;;4.60;1.13;;;10.90;72.80;;;;;;5056123;28;20121;-81
2023/10/22 09:40:21;;;;;;;1.50;0.90;;;10.90;72.70;;;;;;5053204;28;20357;-81
2023/10/22 09:42:49;;;;;;;4.40;1.00;;;10.90;72.60;;;;;;5042728;28;20036;-81
2023/10/22 09:45:16;;;;;;;1.58;0.93;;;11.00;72.80;;;;;;5045899;28;20032;-79
2023/10/22 09:47:46;;;;;;;1.92;1.30;;;11.00;72.80;;;;;;5062225;28;20039;-82
2023/10/22 09:50:18;;;;;;;1.73;1.10;;;11.00;72.80;;;;;;5062358;28;20553;-82
2023/10/22 09:52:46;;;;;;;2.03;0.90;;;11.10;72.90;;;;;;5047098;28;20032;-83
2023/10/22 09:55:13;;;;;;;4.00;1.27;;;11.10;72.90;;;;;;5059086;28;20315;-82
2023/10/22 09:57:40;;;;;;;4.35;1.08;;;11.10;72.90;;;;;;5058898;28;20043;-82
2023/10/22 10:00:12;;;;;;;3.13;1.10;;;11.20;73.10;;;;;;5060534;28;20028;-83
2023/10/22 10:02:42;;;;;;;2.55;1.00;;;11.30;73.30;;;;;;5059142;28;20051;-82
2023/10/22 10:05:13;;;;;;;2.45;0.90;;;11.20;73.00;;;;;;5059398;28;20024;-82
2023/10/22 10:07:40;;;;;;;3.35;1.33;;;11.30;73.20;;;;;;5064686;28;20042;-83
2023/10/22 10:10:08;;;;;;;1.95;1.00;;;11.30;73.10;;;;;;5060659;28;20408;-83
2023/10/22 10:12:36;;;;;;;2.65;1.13;;;11.40;73.30;;;;;;5062549;28;20036;-84
2023/10/22 10:15:03;;;;;;;2.65;1.00;;;11.40;73.30;;;;;;5056181;28;20377;-83
2023/10/22 10:17:29;;;;;;;2.35;0.88;;;11.50;73.40;;;;;;5059209;28;20658;-81
2023/10/22 10:20:23;;;;;;;1.08;0.60;;;11.50;73.40;;;;;;5046250;28;20059;-82
2023/10/22 10:23:11;;;;;;;4.15;0.85;;;11.60;73.60;;;;;;5040817;28;20514;-82
2023/10/22 10:25:39;;;;;;;1.73;0.77;;;11.60;73.50;;;;;;5057971;28;20073;-81
2023/10/22 10:28:08;;;;;;;2.35;0.80;;;11.70;73.50;;;;;;5054126;28;20468;-82
2023/10/22 10:30:35;;;;;;;2.15;1.05;;;11.70;73.50;;;;;;5042920;28;20035;-80
2023/10/22 10:33:02;;;;;;;3.47;1.20;;;11.80;73.60;;;;;;5058510;28;20126;-81
2023/10/22 10:35:29;;;;;;;3.15;1.08;;;11.90;73.70;;;;;;5041374;28;20028;-82
2023/10/22 10:38:14;;;;;;;1.33;0.68;;;11.90;73.60;;;;;;5054448;28;20059;-81
2023/10/22 10:40:43;;;;;;;3.38;1.00;;;12.00;73.80;;;;;;5035524;28;20086;-81
2023/10/22 10:43:10;;;;;;;3.45;1.00;;;12.10;74.30;;;;;;5058336;28;20040;-79
2023/10/22 10:45:40;;;;;;;1.63;0.70;;;12.10;73.80;;;;;;5043403;28;20036;-81
2023/10/22 10:48:06;;;;;;;1.83;1.13;;;12.20;73.80;;;;;;5055323;28;20808;-81
2023/10/22 10:50:32;;;;;;;4.30;0.90;;;12.20;73.80;;;;;;5056895;28;20527;-81
2023/10/22 10:52:59;;;;;;;3.70;1.08;;;12.30;73.90;;;;;;5056796;28;20449;-82
2023/10/22 10:55:32;;;;;;;3.33;0.90;;;12.30;73.80;;;;;;5058304;28;20032;-80
2023/10/22 10:58:00;;;;;;;2.80;1.23;;;12.40;73.90;;;;;;5054895;28;20020;-80
2023/10/22 11:00:31;;;;;;;1.10;0.80;;;12.40;73.80;;;;;;5055102;28;20603;-80
2023/10/22 11:03:04;;;;;;;3.17;1.00;;;12.50;73.90;;;;;;5059997;28;20065;-79
2023/10/22 11:05:42;;;;;;;3.45;0.77;;;12.50;73.80;;;;;;5056608;28;20036;-87
2023/10/22 11:08:17;;;;;;;3.25;0.80;;;12.70;74.00;;;;;;5057949;28;20424;-88
2023/10/22 11:10:45;;;;;;;4.35;1.00;;;12.80;73.90;;;;;;5052723;28;20355;-89
2023/10/22 11:13:11;;;;;;;8.20;2.22;;;12.90;74.00;;;;;;5057867;28;20031;-86
2023/10/22 11:15:40;;;;;;;2.00;0.90;;;13.00;74.10;;;;;;5057690;28;20036;-88
2023/10/22 11:18:11;;;;;;;2.53;0.88;;;13.10;74.20;;;;;;5053072;28;20502;-87
2023/10/22 11:20:41;;;;;;;4.85;0.85;;;13.20;74.30;;;;;;5077952;28;20071;-88
2023/10/22 11:23:18;;;;;;;4.75;1.23;;;13.30;74.30;;;;;;5063440;28;20032;-88
2023/10/22 11:25:44;;;;;;;3.17;0.90;;;13.40;74.30;;;;;;5055579;28;20033;-89
2023/10/22 11:28:11;;;;;;;3.85;1.23;;;13.40;74.10;;;;;;5051758;28;20040;-89
2023/10/22 11:30:40;;;;;;;4.40;1.10;;;13.50;74.20;;;;;;5057830;28;20051;-90
2023/10/22 11:33:08;;;;;;;4.10;1.40;;;13.50;74.10;;;;;;5059937;28;20705;-89
2023/10/22 11:35:36;;;;;;;2.70;0.80;;;13.50;74.00;;;;;;5057123;28;20025;-89
2023/10/22 11:38:03;;;;;;;3.70;1.27;;;13.60;74.10;;;;;;5052886;28;20399;-88
2023/10/22 11:40:34;;;;;;;2.53;1.67;;;13.60;74.00;;;;;;5051229;28;20330;-89
2023/10/22 11:43:04;;;;;;;2.20;1.23;;;13.70;74.00;;;;;;5059482;28;20124;-89
2023/10/22 11:45:34;;;;;;;3.70;1.00;;;13.70;74.00;;;;;;5056355;28;20202;-88
2023/10/22 11:48:17;;;;;;;5.25;2.50;;;13.80;74.00;;;;;;5040246;28;20016;-87
2023/10/22 11:50:45;;;;;;;2.92;1.08;;;13.80;73.80;;;;;;5054201;28;20309;-88
2023/10/22 11:53:12;;;;;;;7.85;1.98;;;13.90;73.90;;;;;;5059818;28;20048;-87
2023/10/22 11:55:38;;;;;;;4.32;1.05;;;13.90;73.70;;;;;;5058361;28;20029;-87
2023/10/22 11:58:18;;;;;;;3.13;1.00;;;13.90;73.60;;;;;;5053408;28;20151;-88
2023/10/22 12:00:45;;;;;;;5.90;1.55;;;14.00;73.60;;;;;;5057009;28;20054;-87
2023/10/22 12:03:11;;;;;;;6.25;1.80;;;14.00;73.40;;;;;;5060547;28;20031;-88
2023/10/22 12:05:38;;;;;;;3.42;1.63;;;14.10;73.50;;;;;;5063018;28;20045;-93
2023/10/22 12:08:04;;;;;;;5.10;1.90;;;14.10;73.40;;;;;;5058177;28;20029;-91
2023/10/22 12:10:31;;;;;;;3.58;1.77;;;14.20;73.40;;;;;;5063622;28;20297;-89
2023/10/22 12:12:57;;;;;;;5.05;2.45;;;14.30;73.40;;;;;;5061112;28;20096;-91
2023/10/22 12:15:25;;;;;;;5.60;1.52;;;14.30;73.20;;;;;;5063364;28;20044;-92
2023/10/22 12:17:52;;;;;;;4.75;1.90;;;14.40;73.30;;;;;;5045401;28;20043;-92
2023/10/22 12:20:20;;;;;;;5.40;2.10;;;14.50;73.30;;;;;;5044455;28;20488;-91
2023/10/22 12:22:46;;;;;;;6.25;1.95;;;14.50;73.20;;;;;;5045315;28;20034;-90
2023/10/22 12:25:12;;;;;;;6.22;2.28;;;14.60;73.20;;;;;;5049215;28;20038;-90
2023/10/22 12:27:39;;;;;;;6.97;2.00;;;14.60;73.00;;;;;;5061959;28;20519;-88
2023/10/22 12:30:06;;;;;;;4.07;1.63;;;14.70;73.10;;;;;;5055509;28;20124;-88
2023/10/22 12:32:33;;;;;;;5.80;1.60;;;14.70;72.90;;;;;;5058819;28;20032;-87
2023/10/22 12:35:00;;;;;;;5.10;1.77;;;14.80;73.00;;;;;;5055970;28;20054;-87
2023/10/22 12:37:26;;;;;;;4.65;1.60;;;14.80;72.90;;;;;;5059469;28;20040;-88
2023/10/22 12:39:52;;;;;;;7.13;2.03;;;14.90;73.00;;;;;;5058574;28;20041;-86
2023/10/22 12:42:19;;;;;;;12.15;7.43;;;15.00;73.00;;;;;;5077232;28;20045;-88
2023/10/22 12:44:46;;;;;;;11.43;7.97;;;15.00;72.90;;;;;;5063218;28;20615;-88
2023/10/22 12:47:13;;;;;;;12.15;8.23;;;15.10;73.40;;;;;;5049288;28;20120;-86
2023/10/22 12:49:43;;;;;;;14.45;6.75;;;15.40;74.20;;;;;;5058369;28;20512;-84
2023/10/22 12:52:11;;;;;;;8.63;6.22;;;15.60;74.60;;;;;;5041449;28;20875;-85
2023/10/22 12:54:43;;;;;;;7.28;5.55;;;15.80;74.70;;;;;;5062730;28;20028;-86